sensor_id;sensor_type;location;lat;lon;timestamp;pressure;altitude;pressure_sealevel;temperature;humidity
23229;BME280;11783;50.350;6.576;2024-03-02T00:00:18;94712.44;;;6.25;100.00
23229;BME280;11783;50.350;6.576;2024-03-02T00:02:48;94716.13;;;6.24;100.00
23229;BME280;11783;50.350;6.576;2024-03-02T00:05:23;94718.81;;;6.29;100.00
23229;BME280;11783;50.350;6.576;2024-03-02T00:07:55;94730.53;;;6.11;100.00
23229;BME280;11783;50.350;6.576;2024-03-02T00:10:36;94724.63;;;6.31;100.00
23229;BME280;11783;50.350;6.576;2024-03-02T00:13:04;94726.69;;;6.24;100.00
23229;BME280;11783;50.350;6.576;2024-03-02T00:17:55;94733.03;;;6.28;100.00
23229;BME280;11783;50.350;6.576;2024-03-02T00:20:22;94719.03;;;6.22;100.00
23229;BME280;11783;50.350;6.576;2024-03-02T00:22:48;94725.06;;;6.18;100.00
23229;BME280;11783;50.350;6.576;2024-03-02T00:25:14;94723.00;;;6.25;100.00
23229;BME280;11783;50.350;6.576;2024-03-02T00:27:39;94718.22;;;6.22;100.00
23229;BME280;11783;50.350;6.576;2024-03-02T00:33:10;94727.25;;;6.31;100.00
23229;BME280;11783;50.350;6.576;2024-03-02T00:35:35;94725.19;;;6.33;100.00
23229;BME280;11783;50.350;6.576;2024-03-02T00:38:05;94730.88;;;6.20;100.00
23229;BME280;11783;50.350;6.576;2024-03-02T00:40:31;94725.47;;;6.36;100.00
23229;BME280;11783;50.350;6.576;2024-03-02T00:42:57;94726.69;;;6.24;100.00
23229;BME280;11783;50.350;6.576;2024-03-02T00:45:22;94729.00;;;6.15;100.00
23229;BME280;11783;50.350;6.576;2024-03-02T00:47:50;94727.78;;;6.28;100.00
23229;BME280;11783;50.350;6.576;2024-03-02T00:50:15;94725.41;;;6.31;100.00
23229;BME280;11783;50.350;6.576;2024-03-02T00:52:41;94723.22;;;6.18;100.00
23229;BME280;11783;50.350;6.576;2024-03-02T00:55:07;94722.72;;;6.21;100.00
23229;BME280;11783;50.350;6.576;2024-03-02T00:57:34;94731.47;;;6.27;100.00
23229;BME280;11783;50.350;6.576;2024-03-02T01:00:02;94716.72;;;6.31;100.00
23229;BME280;11783;50.350;6.576;2024-03-02T01:02:29;94719.31;;;6.26;100.00
23229;BME280;11783;50.350;6.576;2024-03-02T01:04:55;94711.66;;;6.24;100.00
23229;BME280;11783;50.350;6.576;2024-03-02T01:07:20;94720.13;;;6.31;100.00
23229;BME280;11783;50.350;6.576;2024-03-02T01:09:45;94729.88;;;6.26;100.00
23229;BME280;11783;50.350;6.576;2024-03-02T01:12:11;94718.91;;;6.39;100.00
23229;BME280;11783;50.350;6.576;2024-03-02T01:14:36;94722.84;;;6.36;100.00
23229;BME280;11783;50.350;6.576;2024-03-02T01:17:02;94725.97;;;6.33;100.00
23229;BME280;11783;50.350;6.576;2024-03-02T01:19:29;94720.66;;;6.28;100.00
23229;BME280;11783;50.350;6.576;2024-03-02T01:21:55;94721.28;;;6.41;100.00
23229;BME280;11783;50.350;6.576;2024-03-02T01:24:20;94732.06;;;6.34;100.00
23229;BME280;11783;50.350;6.576;2024-03-02T01:26:45;94722.72;;;6.21;100.00
23229;BME280;11783;50.350;6.576;2024-03-02T01:29:11;94719.34;;;6.31;100.00
23229;BME280;11783;50.350;6.576;2024-03-02T01:31:36;94718.13;;;6.44;100.00
23229;BME280;11783;50.350;6.576;2024-03-02T01:34:02;94724.22;;;6.49;100.00
23229;BME280;11783;50.350;6.576;2024-03-02T01:36:27;94716.78;;;6.41;100.00
23229;BME280;11783;50.350;6.576;2024-03-02T01:38:52;94718.25;;;6.27;100.00
23229;BME280;11783;50.350;6.576;2024-03-02T01:41:18;94727.47;;;6.24;100.00
23229;BME280;11783;50.350;6.576;2024-03-02T01:43:43;94719.56;;;6.24;100.00
23229;BME280;11783;50.350;6.576;2024-03-02T01:46:12;94716.41;;;6.27;100.00
23229;BME280;11783;50.350;6.576;2024-03-02T01:48:37;94713.53;;;6.29;100.00
23229;BME280;11783;50.350;6.576;2024-03-02T01:51:03;94711.66;;;6.24;100.00
23229;BME280;11783;50.350;6.576;2024-03-02T01:53:29;94707.81;;;6.42;100.00
23229;BME280;11783;50.350;6.576;2024-03-02T01:55:54;94712.47;;;6.30;100.00
23229;BME280;11783;50.350;6.576;2024-03-02T01:58:20;94719.97;;;6.43;100.00
23229;BME280;11783;50.350;6.576;2024-03-02T02:00:45;94717.50;;;6.31;100.00
23229;BME280;11783;50.350;6.576;2024-03-02T02:03:11;94713.78;;;6.27;100.00
23229;BME280;11783;50.350;6.576;2024-03-02T02:05:36;94720.09;;;6.26;100.00
23229;BME280;11783;50.350;6.576;2024-03-02T02:08:01;94710.88;;;6.29;100.00
23229;BME280;11783;50.350;6.576;2024-03-02T02:10:27;94711.53;;;6.46;100.00
23229;BME280;11783;50.350;6.576;2024-03-02T02:12:52;94721.25;;;6.35;100.00
23229;BME280;11783;50.350;6.576;2024-03-02T02:17:50;94712.97;;;6.22;100.00
23229;BME280;11783;50.350;6.576;2024-03-02T02:20:16;94714.91;;;6.36;100.00
23229;BME280;11783;50.350;6.576;2024-03-02T02:22:58;94726.31;;;6.47;100.00
23229;BME280;11783;50.350;6.576;2024-03-02T02:25:24;94708.91;;;6.46;100.00
23229;BME280;11783;50.350;6.576;2024-03-02T02:27:50;94723.41;;;6.44;100.00
23229;BME280;11783;50.350;6.576;2024-03-02T02:30:24;94717.06;;;6.45;100.00
23229;BME280;11783;50.350;6.576;2024-03-02T02:32:50;94716.53;;;6.43;100.00
23229;BME280;11783;50.350;6.576;2024-03-02T02:35:16;94729.31;;;6.24;100.00
23229;BME280;11783;50.350;6.576;2024-03-02T02:37:41;94716.22;;;6.34;100.00
23229;BME280;11783;50.350;6.576;2024-03-02T02:40:07;94723.41;;;6.44;100.00
23229;BME280;11783;50.350;6.576;2024-03-02T02:42:34;94717.09;;;6.50;100.00
23229;BME280;11783;50.350;6.576;2024-03-02T02:44:59;94705.75;;;6.49;100.00
23229;BME280;11783;50.350;6.576;2024-03-02T02:47:25;94709.41;;;6.43;100.00
23229;BME280;11783;50.350;6.576;2024-03-02T02:49:51;94714.25;;;6.51;100.00
23229;BME280;11783;50.350;6.576;2024-03-02T02:52:16;94713.34;;;6.35;100.00
23229;BME280;11783;50.350;6.576;2024-03-02T02:54:41;94704.22;;;6.16;100.00
23229;BME280;11783;50.350;6.576;2024-03-02T02:57:07;94716.47;;;6.32;100.00
23229;BME280;11783;50.350;6.576;2024-03-02T02:59:32;94719.03;;;6.22;100.00
23229;BME280;11783;50.350;6.576;2024-03-02T03:01:57;94722.88;;;6.10;100.00
23229;BME280;11783;50.350;6.576;2024-03-02T03:04:23;94730.06;;;6.14;100.00
23229;BME280;11783;50.350;6.576;2024-03-02T03:06:48;94738.53;;;6.21;100.00
23229;BME280;11783;50.350;6.576;2024-03-02T03:09:13;94722.56;;;6.33;100.00
23229;BME280;11783;50.350;6.576;2024-03-02T03:11:39;94730.94;;;6.30;100.00
23229;BME280;11783;50.350;6.576;2024-03-02T03:14:04;94724.47;;;6.11;100.00
23229;BME280;11783;50.350;6.576;2024-03-02T03:16:30;94714.53;;;6.23;100.00
23229;BME280;11783;50.350;6.576;2024-03-02T03:18:55;94722.03;;;6.36;100.00
23229;BME280;11783;50.350;6.576;2024-03-02T03:21:21;94730.84;;;6.15;100.00
23229;BME280;11783;50.350;6.576;2024-03-02T03:23:46;94722.84;;;6.04;100.00
23229;BME280;11783;50.350;6.576;2024-03-02T03:26:12;94713.34;;;6.03;100.00
23229;BME280;11783;50.350;6.576;2024-03-02T03:28:37;94719.53;;;6.19;100.00
23229;BME280;11783;50.350;6.576;2024-03-02T03:31:02;94717.47;;;5.94;100.00
23229;BME280;11783;50.350;6.576;2024-03-02T03:33:28;94719.19;;;5.84;100.00
23229;BME280;11783;50.350;6.576;2024-03-02T03:35:54;94725.19;;;6.01;100.00
23229;BME280;11783;50.350;6.576;2024-03-02T03:38:19;94726.59;;;5.87;100.00
23229;BME280;11783;50.350;6.576;2024-03-02T03:40:44;94721.84;;;5.84;100.00
23229;BME280;11783;50.350;6.576;2024-03-02T03:43:10;94721.97;;;5.72;100.00
23229;BME280;11783;50.350;6.576;2024-03-02T03:45:35;94725.97;;;5.74;100.00
23229;BME280;11783;50.350;6.576;2024-03-02T03:48:02;94731.91;;;5.60;100.00
23229;BME280;11783;50.350;6.576;2024-03-02T03:50:27;94735.38;;;5.65;100.00
23229;BME280;11783;50.350;6.576;2024-03-02T03:52:53;94741.28;;;5.51;100.00
23229;BME280;11783;50.350;6.576;2024-03-02T03:55:18;94753.81;;;5.65;100.00
23229;BME280;11783;50.350;6.576;2024-03-02T03:57:44;94734.47;;;5.55;100.00
23229;BME280;11783;50.350;6.576;2024-03-02T04:00:09;94733.81;;;5.42;100.00
23229;BME280;11783;50.350;6.576;2024-03-02T04:02:36;94739.34;;;5.41;100.00
23229;BME280;11783;50.350;6.576;2024-03-02T04:05:01;94737.78;;;5.45;100.00
23229;BME280;11783;50.350;6.576;2024-03-02T04:07:30;94726.31;;;5.56;100.00
23229;BME280;11783;50.350;6.576;2024-03-02T04:09:55;94740.06;;;5.58;100.00
23229;BME280;11783;50.350;6.576;2024-03-02T04:12:21;94740.44;;;5.45;100.00
23229;BME280;11783;50.350;6.576;2024-03-02T04:14:47;94745.69;;;5.45;100.00
23229;BME280;11783;50.350;6.576;2024-03-02T04:17:12;94747.31;;;5.24;100.00
23229;BME280;11783;50.350;6.576;2024-03-02T04:19:38;94752.69;;;5.34;100.00
23229;BME280;11783;50.350;6.576;2024-03-02T04:22:04;94758.25;;;5.38;100.00
23229;BME280;11783;50.350;6.576;2024-03-02T04:24:29;94763.28;;;5.39;100.00
23229;BME280;11783;50.350;6.576;2024-03-02T04:26:55;94771.06;;;5.29;100.00
23229;BME280;11783;50.350;6.576;2024-03-02T04:29:20;94774.84;;;5.38;100.00
23229;BME280;11783;50.350;6.576;2024-03-02T04:31:46;94768.53;;;5.17;100.00
23229;BME280;11783;50.350;6.576;2024-03-02T04:34:11;94770.50;;;5.27;100.00
23229;BME280;11783;50.350;6.576;2024-03-02T04:36:36;94764.94;;;5.24;100.00
23229;BME280;11783;50.350;6.576;2024-03-02T04:39:02;94762.38;;;5.29;100.00
23229;BME280;11783;50.350;6.576;2024-03-02T04:41:27;94774.44;;;5.25;100.00
23229;BME280;11783;50.350;6.576;2024-03-02T04:43:53;94776.63;;;5.11;100.00
23229;BME280;11783;50.350;6.576;2024-03-02T04:46:18;94774.31;;;5.14;100.00
23229;BME280;11783;50.350;6.576;2024-03-02T04:48:43;94771.81;;;5.25;100.00
23229;BME280;11783;50.350;6.576;2024-03-02T04:51:09;94773.50;;;5.14;100.00
23229;BME280;11783;50.350;6.576;2024-03-02T04:53:35;94771.31;;;5.06;100.00
23229;BME280;11783;50.350;6.576;2024-03-02T04:56:00;94771.94;;;4.96;100.00
23229;BME280;11783;50.350;6.576;2024-03-02T04:59:01;94771.78;;;5.03;100.00
23229;BME280;11783;50.350;6.576;2024-03-02T05:01:26;94773.94;;;5.06;100.00
23229;BME280;11783;50.350;6.576;2024-03-02T05:03:51;94772.16;;;5.11;100.00
23229;BME280;11783;50.350;6.576;2024-03-02T05:06:17;94774.75;;;5.06;100.00
23229;BME280;11783;50.350;6.576;2024-03-02T05:08:42;94775.69;;;5.00;100.00
23229;BME280;11783;50.350;6.576;2024-03-02T05:11:10;94770.50;;;5.05;100.00
23229;BME280;11783;50.350;6.576;2024-03-02T05:13:54;94769.47;;;5.06;100.00
23229;BME280;11783;50.350;6.576;2024-03-02T05:16:19;94778.72;;;5.09;100.00
23229;BME280;11783;50.350;6.576;2024-03-02T05:18:44;94770.50;;;5.05;100.00
23229;BME280;11783;50.350;6.576;2024-03-02T05:21:10;94770.56;;;5.10;100.00
23229;BME280;11783;50.350;6.576;2024-03-02T05:23:36;94769.88;;;4.98;100.00
23229;BME280;11783;50.350;6.576;2024-03-02T05:26:02;94776.28;;;5.02;100.00
23229;BME280;11783;50.350;6.576;2024-03-02T05:28:28;94774.97;;;5.05;100.00
23229;BME280;11783;50.350;6.576;2024-03-02T05:30:53;94782.38;;;5.08;100.00
23229;BME280;11783;50.350;6.576;2024-03-02T05:33:18;94780.59;;;5.13;100.00
23229;BME280;11783;50.350;6.576;2024-03-02T05:35:47;94778.97;;;5.07;100.00
23229;BME280;11783;50.350;6.576;2024-03-02T05:38:15;94781.34;;;5.09;100.00
23229;BME280;11783;50.350;6.576;2024-03-02T05:40:40;94788.44;;;5.08;100.00
23229;BME280;11783;50.350;6.576;2024-03-02T05:43:06;94786.72;;;4.97;100.00
23229;BME280;11783;50.350;6.576;2024-03-02T05:45:31;94788.97;;;4.89;100.00
23229;BME280;11783;50.350;6.576;2024-03-02T05:47:56;94786.91;;;4.91;100.00
23229;BME280;11783;50.350;6.576;2024-03-02T05:50:22;94785.00;;;4.86;100.00
23229;BME280;11783;50.350;6.576;2024-03-02T05:52:47;94794.00;;;4.90;100.00
23229;BME280;11783;50.350;6.576;2024-03-02T05:55:13;94785.78;;;4.86;100.00
23229;BME280;11783;50.350;6.576;2024-03-02T05:57:38;94789.13;;;4.82;100.00
23229;BME280;11783;50.350;6.576;2024-03-02T06:00:09;94791.59;;;4.89;100.00
23229;BME280;11783;50.350;6.576;2024-03-02T06:02:39;94791.59;;;4.89;100.00
23229;BME280;11783;50.350;6.576;2024-03-02T06:05:04;94792.00;;;4.80;100.00
23229;BME280;11783;50.350;6.576;2024-03-02T06:07:30;94799.03;;;4.75;100.00
23229;BME280;11783;50.350;6.576;2024-03-02T06:09:55;94800.88;;;4.74;100.00
23229;BME280;11783;50.350;6.576;2024-03-02T06:12:20;94796.97;;;4.77;100.00
23229;BME280;11783;50.350;6.576;2024-03-02T06:14:46;94812.44;;;4.73;100.00
23229;BME280;11783;50.350;6.576;2024-03-02T06:17:11;94804.91;;;4.82;100.00
23229;BME280;11783;50.350;6.576;2024-03-02T06:19:37;94803.03;;;4.77;100.00
23229;BME280;11783;50.350;6.576;2024-03-02T06:22:02;94801.84;;;4.68;100.00
23229;BME280;11783;50.350;6.576;2024-03-02T06:24:27;94797.75;;;4.61;100.00
23229;BME280;11783;50.350;6.576;2024-03-02T06:26:53;94794.88;;;4.62;100.00
23229;BME280;11783;50.350;6.576;2024-03-02T06:29:18;94801.28;;;4.66;100.00
23229;BME280;11783;50.350;6.576;2024-03-02T06:31:43;94796.97;;;4.60;100.00
23229;BME280;11783;50.350;6.576;2024-03-02T06:34:09;94802.72;;;4.74;100.00
23229;BME280;11783;50.350;6.576;2024-03-02T06:36:34;94816.97;;;4.61;100.00
23229;BME280;11783;50.350;6.576;2024-03-02T06:39:00;94803.94;;;4.66;100.00
23229;BME280;11783;50.350;6.576;2024-03-02T06:41:25;94813.78;;;4.42;100.00
23229;BME280;11783;50.350;6.576;2024-03-02T06:43:52;94818.91;;;4.49;100.00
23229;BME280;11783;50.350;6.576;2024-03-02T06:46:24;94802.16;;;4.55;100.00
23229;BME280;11783;50.350;6.576;2024-03-02T06:48:50;94795.53;;;4.69;100.00
23229;BME280;11783;50.350;6.576;2024-03-02T06:51:15;94791.63;;;4.72;100.00
23229;BME280;11783;50.350;6.576;2024-03-02T06:53:41;94801.03;;;4.84;100.00
23229;BME280;11783;50.350;6.576;2024-03-02T06:56:07;94802.06;;;4.83;100.00
23229;BME280;11783;50.350;6.576;2024-03-02T06:58:33;94798.72;;;4.88;100.00
23229;BME280;11783;50.350;6.576;2024-03-02T07:00:58;94808.75;;;4.91;100.00
23229;BME280;11783;50.350;6.576;2024-03-02T07:03:25;94813.41;;;4.84;100.00
23229;BME280;11783;50.350;6.576;2024-03-02T07:05:51;94815.63;;;4.75;100.00
23229;BME280;11783;50.350;6.576;2024-03-02T07:08:16;94825.19;;;4.81;100.00
23229;BME280;11783;50.350;6.576;2024-03-02T07:10:42;94835.25;;;4.84;100.00
23229;BME280;11783;50.350;6.576;2024-03-02T07:13:07;94850.41;;;4.77;100.00
23229;BME280;11783;50.350;6.576;2024-03-02T07:15:32;94839.38;;;4.80;100.00
23229;BME280;11783;50.350;6.576;2024-03-02T07:18:16;94835.81;;;4.70;100.00
23229;BME280;11783;50.350;6.576;2024-03-02T07:20:42;94838.28;;;4.76;100.00
23229;BME280;11783;50.350;6.576;2024-03-02T07:23:07;94820.66;;;4.77;100.00
23229;BME280;11783;50.350;6.576;2024-03-02T07:25:34;94826.78;;;4.82;100.00
23229;BME280;11783;50.350;6.576;2024-03-02T07:27:59;94820.63;;;4.94;100.00
23229;BME280;11783;50.350;6.576;2024-03-02T07:30:25;94820.88;;;4.92;100.00
23229;BME280;11783;50.350;6.576;2024-03-02T07:32:50;94823.97;;;5.06;100.00
23229;BME280;11783;50.350;6.576;2024-03-02T07:35:16;94838.72;;;5.07;100.00
23229;BME280;11783;50.350;6.576;2024-03-02T07:37:42;94822.56;;;5.20;100.00
23229;BME280;11783;50.350;6.576;2024-03-02T07:40:08;94821.75;;;5.20;100.00
23229;BME280;11783;50.350;6.576;2024-03-02T07:42:40;94831.19;;;5.15;100.00
23229;BME280;11783;50.350;6.576;2024-03-02T07:45:06;94829.25;;;5.28;100.00
23229;BME280;11783;50.350;6.576;2024-03-02T07:47:33;94836.31;;;5.22;100.00
23229;BME280;11783;50.350;6.576;2024-03-02T07:49:59;94854.06;;;5.32;100.00
23229;BME280;11783;50.350;6.576;2024-03-02T07:52:24;94854.75;;;5.44;100.00
23229;BME280;11783;50.350;6.576;2024-03-02T07:54:49;94860.59;;;5.68;100.00
23229;BME280;11783;50.350;6.576;2024-03-02T07:57:15;94868.13;;;5.81;100.00
23229;BME280;11783;50.350;6.576;2024-03-02T07:59:40;94872.22;;;5.72;100.00
23229;BME280;11783;50.350;6.576;2024-03-02T08:02:06;94872.13;;;5.84;100.00
23229;BME280;11783;50.350;6.576;2024-03-02T08:04:32;94878.25;;;5.89;100.00
23229;BME280;11783;50.350;6.576;2024-03-02T08:06:57;94864.47;;;6.04;100.00
23229;BME280;11783;50.350;6.576;2024-03-02T08:09:23;94862.63;;;6.04;100.00
23229;BME280;11783;50.350;6.576;2024-03-02T08:11:48;94866.56;;;6.02;100.00
23229;BME280;11783;50.350;6.576;2024-03-02T08:14:14;94873.63;;;5.96;100.00
23229;BME280;11783;50.350;6.576;2024-03-02T08:16:40;94861.63;;;6.11;100.00
23229;BME280;11783;50.350;6.576;2024-03-02T08:19:05;94860.19;;;6.25;100.00
23229;BME280;11783;50.350;6.576;2024-03-02T08:21:31;94859.75;;;6.33;100.00
23229;BME280;11783;50.350;6.576;2024-03-02T08:23:57;94852.41;;;6.40;100.00
23229;BME280;11783;50.350;6.576;2024-03-02T08:26:23;94852.56;;;6.28;100.00
23229;BME280;11783;50.350;6.576;2024-03-02T08:28:48;94841.09;;;6.45;100.00
23229;BME280;11783;50.350;6.576;2024-03-02T08:31:14;94835.59;;;7.20;100.00
23229;BME280;11783;50.350;6.576;2024-03-02T08:33:39;94819.25;;;7.91;100.00
23229;BME280;11783;50.350;6.576;2024-03-02T08:36:06;94830.69;;;8.12;100.00
23229;BME280;11783;50.350;6.576;2024-03-02T08:38:31;94816.97;;;8.25;100.00
23229;BME280;11783;50.350;6.576;2024-03-02T08:40:57;94819.59;;;8.20;100.00
23229;BME280;11783;50.350;6.576;2024-03-02T08:43:22;94817.03;;;8.56;100.00
23229;BME280;11783;50.350;6.576;2024-03-02T08:45:48;94813.31;;;8.77;100.00
23229;BME280;11783;50.350;6.576;2024-03-02T08:48:14;94810.63;;;9.18;100.00
23229;BME280;11783;50.350;6.576;2024-03-02T08:50:40;94808.19;;;9.31;100.00
23229;BME280;11783;50.350;6.576;2024-03-02T08:53:05;94833.91;;;9.31;100.00
23229;BME280;11783;50.350;6.576;2024-03-02T08:55:31;94840.56;;;9.08;100.00
23229;BME280;11783;50.350;6.576;2024-03-02T08:57:56;94854.63;;;8.88;100.00
23229;BME280;11783;50.350;6.576;2024-03-02T09:00:23;94837.94;;;8.57;100.00
23229;BME280;11783;50.350;6.576;2024-03-02T09:02:48;94846.91;;;8.36;100.00
23229;BME280;11783;50.350;6.576;2024-03-02T09:05:14;94862.03;;;8.56;100.00
23229;BME280;11783;50.350;6.576;2024-03-02T09:07:40;94842.19;;;8.78;100.00
23229;BME280;11783;50.350;6.576;2024-03-02T09:10:06;94852.75;;;8.73;100.00
23229;BME280;11783;50.350;6.576;2024-03-02T09:12:32;94856.75;;;8.61;100.00
23229;BME280;11783;50.350;6.576;2024-03-02T09:14:59;94866.28;;;8.57;100.00
23229;BME280;11783;50.350;6.576;2024-03-02T09:17:24;94865.72;;;8.44;100.00
23229;BME280;11783;50.350;6.576;2024-03-02T09:19:50;94879.38;;;8.11;100.00
23229;BME280;11783;50.350;6.576;2024-03-02T09:22:18;94867.75;;;7.54;100.00
23229;BME280;11783;50.350;6.576;2024-03-02T09:24:43;94866.09;;;7.38;100.00
23229;BME280;11783;50.350;6.576;2024-03-02T09:27:09;94867.31;;;7.68;100.00
23229;BME280;11783;50.350;6.576;2024-03-02T09:29:34;94852.25;;;7.78;100.00
23229;BME280;11783;50.350;6.576;2024-03-02T09:32:00;94866.41;;;8.14;100.00
23229;BME280;11783;50.350;6.576;2024-03-02T09:34:25;94859.91;;;8.37;100.00
23229;BME280;11783;50.350;6.576;2024-03-02T09:36:51;94850.31;;;8.31;100.00
23229;BME280;11783;50.350;6.576;2024-03-02T09:39:16;94852.25;;;8.56;100.00
23229;BME280;11783;50.350;6.576;2024-03-02T09:41:43;94850.91;;;8.69;100.00
23229;BME280;11783;50.350;6.576;2024-03-02T09:44:09;94847.22;;;8.80;100.00
23229;BME280;11783;50.350;6.576;2024-03-02T09:46:35;94843.25;;;8.98;100.00
23229;BME280;11783;50.350;6.576;2024-03-02T09:49:02;94843.75;;;9.10;100.00
23229;BME280;11783;50.350;6.576;2024-03-02T09:51:28;94839.78;;;9.13;100.00
23229;BME280;11783;50.350;6.576;2024-03-02T09:53:55;94859.13;;;9.08;100.00
23229;BME280;11783;50.350;6.576;2024-03-02T09:56:23;94841.63;;;8.92;100.00
23229;BME280;11783;50.350;6.576;2024-03-02T09:58:49;94851.72;;;9.00;100.00
23229;BME280;11783;50.350;6.576;2024-03-02T10:01:14;94851.19;;;8.93;100.00
23229;BME280;11783;50.350;6.576;2024-03-02T10:03:39;94838.47;;;8.90;100.00
23229;BME280;11783;50.350;6.576;2024-03-02T10:06:21;94838.75;;;8.93;100.00
23229;BME280;11783;50.350;6.576;2024-03-02T10:08:47;94843.25;;;8.93;100.00
23229;BME280;11783;50.350;6.576;2024-03-02T10:11:33;94839.25;;;9.00;100.00
23229;BME280;11783;50.350;6.576;2024-03-02T10:14:13;94835.28;;;8.98;100.00
23229;BME280;11783;50.350;6.576;2024-03-02T10:16:43;94839.25;;;9.00;100.00
23229;BME280;11783;50.350;6.576;2024-03-02T10:19:19;94837.13;;;8.92;100.00
23229;BME280;11783;50.350;6.576;2024-03-02T10:21:52;94834.75;;;9.01;100.00
23229;BME280;11783;50.350;6.576;2024-03-02T10:24:18;94830.78;;;8.93;100.00
23229;BME280;11783;50.350;6.576;2024-03-02T10:26:44;94831.31;;;9.00;100.00
23229;BME280;11783;50.350;6.576;2024-03-02T10:29:11;94825.22;;;8.95;100.00
23229;BME280;11783;50.350;6.576;2024-03-02T10:31:41;94828.38;;;9.07;100.00
23229;BME280;11783;50.350;6.576;2024-03-02T10:34:07;94820.91;;;9.34;100.00
23229;BME280;11783;50.350;6.576;2024-03-02T10:36:37;94820.63;;;9.41;100.00
23229;BME280;11783;50.350;6.576;2024-03-02T10:39:06;94822.47;;;9.51;100.00
23229;BME280;11783;50.350;6.576;2024-03-02T10:41:36;94825.63;;;9.53;100.00
23229;BME280;11783;50.350;6.576;2024-03-02T10:44:04;94819.81;;;9.51;100.00
23229;BME280;11783;50.350;6.576;2024-03-02T10:46:31;94818.19;;;9.60;100.00
23229;BME280;11783;50.350;6.576;2024-03-02T10:48:58;94818.16;;;9.70;100.00
23229;BME280;11783;50.350;6.576;2024-03-02T10:51:25;94811.19;;;9.84;100.00
23229;BME280;11783;50.350;6.576;2024-03-02T10:53:52;94809.53;;;9.98;100.00
23229;BME280;11783;50.350;6.576;2024-03-02T10:56:22;94825.69;;;10.07;100.00
23229;BME280;11783;50.350;6.576;2024-03-02T11:01:38;94795.00;;;9.86;100.00
23229;BME280;11783;50.350;6.576;2024-03-02T11:04:08;94801.34;;;9.85;100.00
23229;BME280;11783;50.350;6.576;2024-03-02T11:06:34;94805.31;;;9.92;100.00
23229;BME280;11783;50.350;6.576;2024-03-02T11:09:07;94807.19;;;9.92;100.00
23229;BME280;11783;50.350;6.576;2024-03-02T11:11:39;94815.06;;;10.07;100.00
23229;BME280;11783;50.350;6.576;2024-03-02T11:14:07;94820.06;;;10.14;100.00
23229;BME280;11783;50.350;6.576;2024-03-02T11:16:37;94816.59;;;10.23;100.00
23229;BME280;11783;50.350;6.576;2024-03-02T11:19:05;94805.97;;;10.23;100.00
23229;BME280;11783;50.350;6.576;2024-03-02T11:21:35;94799.78;;;10.33;100.00
23229;BME280;11783;50.350;6.576;2024-03-02T11:27:03;94790.44;;;10.41;100.00
23229;BME280;11783;50.350;6.576;2024-03-02T11:34:46;94781.09;;;10.48;100.00
23229;BME280;11783;50.350;6.576;2024-03-02T11:37:16;94769.00;;;10.66;100.00
23229;BME280;11783;50.350;6.576;2024-03-02T11:39:43;94764.59;;;10.85;100.00
23229;BME280;11783;50.350;6.576;2024-03-02T11:42:09;94755.19;;;10.98;100.00
23229;BME280;11783;50.350;6.576;2024-03-02T11:44:36;94752.78;;;10.97;100.00
23229;BME280;11783;50.350;6.576;2024-03-02T11:47:05;94761.09;;;11.14;100.00
23229;BME280;11783;50.350;6.576;2024-03-02T11:49:38;94775.72;;;11.16;100.00
23229;BME280;11783;50.350;6.576;2024-03-02T11:52:04;94772.22;;;11.21;100.00
23229;BME280;11783;50.350;6.576;2024-03-02T11:54:32;94774.47;;;11.33;100.00
23229;BME280;11783;50.350;6.576;2024-03-02T11:57:01;94772.38;;;11.06;100.00
23229;BME280;11783;50.350;6.576;2024-03-02T11:59:28;94758.28;;;11.29;100.00
23229;BME280;11783;50.350;6.576;2024-03-02T12:01:54;94754.22;;;11.37;100.00
23229;BME280;11783;50.350;6.576;2024-03-02T12:04:21;94760.00;;;11.20;100.00
23229;BME280;11783;50.350;6.576;2024-03-02T12:06:48;94751.94;;;11.49;100.00
23229;BME280;11783;50.350;6.576;2024-03-02T12:09:20;94743.16;;;11.72;100.00
23229;BME280;11783;50.350;6.576;2024-03-02T12:11:46;94744.28;;;11.90;100.00
23229;BME280;11783;50.350;6.576;2024-03-02T12:14:11;94742.06;;;11.97;100.00
23229;BME280;11783;50.350;6.576;2024-03-02T12:16:44;94740.91;;;12.03;100.00
23229;BME280;11783;50.350;6.576;2024-03-02T12:19:09;94738.16;;;12.08;100.00
23229;BME280;11783;50.350;6.576;2024-03-02T12:21:34;94743.84;;;12.02;100.00
23229;BME280;11783;50.350;6.576;2024-03-02T12:24:01;94730.44;;;12.07;100.00
23229;BME280;11783;50.350;6.576;2024-03-02T12:26:26;94735.72;;;11.93;100.00
23229;BME280;11783;50.350;6.576;2024-03-02T12:28:52;94733.13;;;11.64;100.00
23229;BME280;11783;50.350;6.576;2024-03-02T12:31:17;94729.22;;;11.80;100.00
23229;BME280;11783;50.350;6.576;2024-03-02T12:33:43;94737.03;;;11.96;100.00
23229;BME280;11783;50.350;6.576;2024-03-02T12:36:13;94731.53;;;12.06;100.00
23229;BME280;11783;50.350;6.576;2024-03-02T12:38:43;94724.56;;;12.10;100.00
23229;BME280;11783;50.350;6.576;2024-03-02T12:41:09;94729.94;;;12.24;100.00
23229;BME280;11783;50.350;6.576;2024-03-02T12:43:34;94717.66;;;12.28;100.00
23229;BME280;11783;50.350;6.576;2024-03-02T12:45:59;94721.75;;;12.20;100.00
23229;BME280;11783;50.350;6.576;2024-03-02T12:48:25;94719.75;;;12.12;100.00
23229;BME280;11783;50.350;6.576;2024-03-02T12:50:50;94718.22;;;12.06;100.00
23229;BME280;11783;50.350;6.576;2024-03-02T12:53:16;94725.72;;;12.04;100.00
23229;BME280;11783;50.350;6.576;2024-03-02T12:55:42;94711.31;;;11.86;100.00
23229;BME280;11783;50.350;6.576;2024-03-02T12:58:17;94708.16;;;12.03;100.00
23229;BME280;11783;50.350;6.576;2024-03-02T13:00:42;94696.13;;;12.05;100.00
23229;BME280;11783;50.350;6.576;2024-03-02T13:03:07;94698.16;;;12.13;100.00
23229;BME280;11783;50.350;6.576;2024-03-02T13:05:33;94705.88;;;11.96;100.00
23229;BME280;11783;50.350;6.576;2024-03-02T13:07:58;94698.78;;;12.05;100.00
23229;BME280;11783;50.350;6.576;2024-03-02T13:10:25;94696.38;;;11.90;100.00
23229;BME280;11783;50.350;6.576;2024-03-02T13:12:50;94701.97;;;11.89;100.00